Time;durP1;ratioP1;P1;durP2;ratioP2;P2;SDS_P1;SDS_P2;PMS_P1;PMS_P2;Temp;Humidity;BMP_temperature;BMP_pressure;BME280_temperature;BME280_humidity;BME280_pressure;Samples;Min_cycle;Max_cycle;Signal;HPM_P1;HPM_P2
2022/03/07 00:00:31;;;;;;;12.07;10.23;;;;;;;1.35;56.20;96810.84;5113166;28;20218;-54
2022/03/07 00:02:58;;;;;;;12.77;10.17;;;;;;;1.36;55.50;96808.19;5112945;28;20234;-55
2022/03/07 00:05:26;;;;;;;12.03;10.57;;;;;;;1.44;55.82;96815.59;5112997;28;20199;-52
2022/03/07 00:07:52;;;;;;;13.77;9.93;;;;;;;1.48;54.52;96811.91;5112895;28;20235;-53
2022/03/07 00:10:19;;;;;;;11.23;9.87;;;;;;;1.46;55.43;96811.97;5113110;28;20208;-51
2022/03/07 00:12:45;;;;;;;12.60;10.43;;;;;;;1.46;55.83;96819.78;5112379;28;20227;-52
2022/03/07 00:15:12;;;;;;;11.77;9.80;;;;;;;1.58;53.28;96814.81;5113516;28;20517;-52
2022/03/07 00:17:38;;;;;;;12.93;10.40;;;;;;;1.31;53.63;96817.19;5112915;28;20208;-51
2022/03/07 00:20:06;;;;;;;11.73;10.33;;;;;;;1.35;54.73;96827.34;5113047;28;20211;-52
2022/03/07 00:22:34;;;;;;;12.50;10.43;;;;;;;1.24;53.57;96827.06;5112479;28;20223;-51
2022/03/07 00:25:01;;;;;;;12.60;10.90;;;;;;;1.24;54.02;96824.47;5112652;28;20761;-51
2022/03/07 00:27:27;;;;;;;12.00;9.87;;;;;;;1.37;54.21;96829.88;5112829;28;20207;-51
2022/03/07 00:29:55;;;;;;;11.97;9.90;;;;;;;1.38;54.25;96819.34;5112508;28;20537;-51
2022/03/07 00:32:22;;;;;;;11.13;9.93;;;;;;;1.38;56.11;96831.56;5111181;27;20654;-51
2022/03/07 00:34:48;;;;;;;12.83;10.40;;;;;;;1.31;56.01;96823.22;5112639;28;20636;-51
2022/03/07 00:37:15;;;;;;;11.93;10.63;;;;;;;1.25;56.83;96822.69;5112656;28;20199;-51
2022/03/07 00:39:43;;;;;;;11.10;10.00;;;;;;;1.16;57.73;96825.81;5113009;28;20208;-52
2022/03/07 00:42:09;;;;;;;11.90;10.03;;;;;;;1.17;55.16;96827.50;5112686;28;20224;-53
2022/03/07 00:44:36;;;;;;;12.63;10.50;;;;;;;1.03;54.31;96817.78;5112015;28;20198;-53
2022/03/07 00:47:03;;;;;;;11.20;9.70;;;;;;;1.16;55.20;96820.59;5112612;28;20200;-51
2022/03/07 00:49:29;;;;;;;11.70;10.47;;;;;;;1.07;54.81;96821.91;5112528;28;20207;-53
2022/03/07 00:51:57;;;;;;;12.20;10.63;;;;;;;1.08;56.11;96825.38;5112530;28;20204;-52
2022/03/07 00:54:23;;;;;;;12.97;10.37;;;;;;;0.97;57.27;96826.78;5112588;28;20250;-52
2022/03/07 00:56:51;;;;;;;12.60;10.43;;;;;;;0.93;58.16;96820.03;5112510;28;20206;-53
2022/03/07 00:59:17;;;;;;;12.57;10.00;;;;;;;0.89;57.31;96826.31;5122547;28;20215;-53
2022/03/07 01:01:45;;;;;;;11.07;9.93;;;;;;;0.74;55.45;96821.09;5125841;28;20876;-53
2022/03/07 01:04:11;;;;;;;11.17;9.90;;;;;;;0.79;56.26;96812.13;5126805;28;20186;-53
2022/03/07 01:06:38;;;;;;;11.77;10.00;;;;;;;0.76;56.37;96820.09;5116059;28;20293;-52
2022/03/07 01:09:04;;;;;;;11.03;9.80;;;;;;;0.79;56.40;96819.91;5112513;28;20220;-50
2022/03/07 01:11:30;;;;;;;10.23;9.20;;;;;;;0.75;56.14;96821.00;5111869;28;20647;-52
2022/03/07 01:13:58;;;;;;;11.47;9.77;;;;;;;0.74;56.39;96818.50;5112141;28;20199;-51
2022/03/07 01:16:26;;;;;;;12.60;10.63;;;;;;;0.76;56.66;96808.81;5112075;28;20198;-54
2022/03/07 01:18:52;;;;;;;10.80;9.70;;;;;;;0.79;57.29;96806.91;5112006;28;20212;-52
2022/03/07 01:21:19;;;;;;;11.83;9.63;;;;;;;0.77;58.17;96808.75;5112063;28;20663;-50
2022/03/07 01:23:46;;;;;;;11.80;10.50;;;;;;;0.73;56.01;96804.63;5111746;28;20249;-51
2022/03/07 01:26:12;;;;;;;13.20;10.47;;;;;;;0.69;57.03;96802.25;5111992;28;20236;-52
2022/03/07 01:28:38;;;;;;;11.63;9.50;;;;;;;0.67;57.22;96797.16;5111572;28;20204;-53
2022/03/07 01:31:09;;;;;;;10.83;9.70;;;;;;;0.68;58.34;96801.41;5111257;28;20202;-51
2022/03/07 01:33:35;;;;;;;12.70;10.80;;;;;;;0.70;58.51;96796.13;5111584;28;20199;-52
2022/03/07 01:36:02;;;;;;;11.87;9.93;;;;;;;0.61;58.64;96794.84;5111108;28;20201;-54
2022/03/07 01:38:28;;;;;;;10.73;9.50;;;;;;;0.64;57.19;96791.25;5111900;28;20198;-53
2022/03/07 01:40:56;;;;;;;12.57;10.20;;;;;;;0.58;56.53;96791.56;5111708;28;20193;-52
2022/03/07 01:43:23;;;;;;;12.93;10.40;;;;;;;0.56;56.18;96788.19;5110102;28;20567;-51
2022/03/07 01:45:50;;;;;;;11.73;9.97;;;;;;;0.52;56.47;96789.28;5111197;28;20643;-52
2022/03/07 01:48:18;;;;;;;14.00;10.13;;;;;;;0.58;55.98;96782.00;5111432;28;20246;-53
2022/03/07 01:50:44;;;;;;;14.33;9.70;;;;;;;0.54;56.01;96782.22;5111066;28;20567;-52
2022/03/07 01:53:11;;;;;;;12.07;9.57;;;;;;;0.53;56.60;96775.34;5111789;28;20567;-52
2022/03/07 01:55:37;;;;;;;10.70;9.60;;;;;;;0.65;56.35;96779.91;5111638;28;20198;-53
2022/03/07 01:58:05;;;;;;;11.00;9.90;;;;;;;0.53;57.03;96777.97;5111582;28;20211;-51
2022/03/07 02:00:31;;;;;;;11.23;9.57;;;;;;;0.64;57.76;96781.66;5112422;28;20217;-51
2022/03/07 02:02:58;;;;;;;11.73;10.23;;;;;;;0.65;58.06;96780.75;5110990;28;20229;-53
2022/03/07 02:05:26;;;;;;;10.77;9.67;;;;;;;0.59;57.05;96777.63;5111041;28;20197;-53
2022/03/07 02:07:55;;;;;;;11.27;10.07;;;;;;;0.54;56.27;96784.81;5111581;28;20750;-53
2022/03/07 02:10:24;;;;;;;12.13;10.27;;;;;;;0.53;55.98;96786.63;5112088;28;20197;-53
2022/03/07 02:12:53;;;;;;;11.33;10.13;;;;;;;0.45;56.76;96781.78;5111971;28;20215;-52
2022/03/07 02:15:20;;;;;;;10.70;9.60;;;;;;;0.52;57.47;96776.25;5112000;28;20220;-52
2022/03/07 02:17:48;;;;;;;11.03;9.53;;;;;;;0.59;58.06;96773.28;5111018;28;20205;-51
2022/03/07 02:20:15;;;;;;;11.50;9.80;;;;;;;0.47;56.82;96776.50;5110888;28;20296;-53
2022/03/07 02:22:44;;;;;;;11.17;10.07;;;;;;;0.54;58.47;96780.47;5110829;28;20314;-51
2022/03/07 02:25:11;;;;;;;10.57;9.40;;;;;;;0.56;59.70;96778.63;5110850;28;20259;-52
2022/03/07 02:27:37;;;;;;;10.80;9.50;;;;;;;0.52;60.34;96777.13;5110707;28;20500;-52
2022/03/07 02:30:06;;;;;;;11.00;9.50;;;;;;;0.46;59.57;96773.03;5110619;28;20210;-53
2022/03/07 02:32:33;;;;;;;12.77;9.80;;;;;;;0.38;59.71;96774.38;5110121;28;20200;-52
2022/03/07 02:34:59;;;;;;;12.27;10.30;;;;;;;0.35;59.93;96774.53;5110592;28;20204;-52
2022/03/07 02:37:26;;;;;;;11.80;9.37;;;;;;;0.37;59.09;96773.53;5111078;28;20205;-52
2022/03/07 02:39:53;;;;;;;10.80;9.60;;;;;;;0.28;56.82;96774.00;5110751;28;20204;-51
2022/03/07 02:42:20;;;;;;;11.80;9.83;;;;;;;0.32;56.81;96774.69;5110902;28;20231;-53
2022/03/07 02:44:46;;;;;;;10.60;9.50;;;;;;;0.24;56.40;96774.22;5110667;28;20200;-52
2022/03/07 02:47:14;;;;;;;10.70;9.60;;;;;;;0.21;56.52;96782.19;5110702;28;20204;-53
2022/03/07 02:49:40;;;;;;;12.20;9.90;;;;;;;0.25;55.76;96778.53;5110579;28;20294;-52
2022/03/07 02:52:08;;;;;;;10.40;9.20;;;;;;;0.27;56.41;96781.88;5110642;28;20204;-52
2022/03/07 02:54:34;;;;;;;11.20;9.47;;;;;;;0.24;56.12;96774.22;5112259;28;20201;-52
2022/03/07 02:57:02;;;;;;;11.60;10.23;;;;;;;0.29;55.92;96770.47;5114427;28;20530;-51
2022/03/07 02:59:29;;;;;;;10.13;9.13;;;;;;;0.25;55.77;96771.53;5114499;28;20225;-53
2022/03/07 03:01:55;;;;;;;10.60;9.47;;;;;;;0.28;55.81;96768.81;5114255;28;20240;-51
2022/03/07 03:04:22;;;;;;;10.67;9.20;;;;;;;0.25;55.92;96768.94;5114190;27;20217;-52
2022/03/07 03:06:48;;;;;;;11.13;9.53;;;;;;;0.29;56.32;96769.63;5115061;28;20216;-51
2022/03/07 03:09:15;;;;;;;10.93;9.33;;;;;;;0.23;56.31;96767.34;5114706;28;20205;-51
2022/03/07 03:11:41;;;;;;;10.97;9.67;;;;;;;0.24;57.53;96761.22;5114561;28;20203;-54
2022/03/07 03:14:09;;;;;;;11.80;10.03;;;;;;;0.25;56.68;96758.53;5114541;28;20211;-52
2022/03/07 03:16:36;;;;;;;10.40;9.10;;;;;;;0.22;57.04;96758.69;5114758;28;20299;-52
2022/03/07 03:19:02;;;;;;;10.97;9.87;;;;;;;0.15;55.78;96772.06;5118565;28;20276;-52
2022/03/07 03:21:30;;;;;;;10.83;9.63;;;;;;;0.12;57.26;96759.25;5123433;28;20538;-51
2022/03/07 03:23:56;;;;;;;10.50;9.10;;;;;;;0.08;56.58;96766.34;5133345;28;20224;-52
2022/03/07 03:26:23;;;;;;;10.80;9.70;;;;;;;0.18;56.14;96769.34;5135419;28;20203;-53
2022/03/07 03:28:49;;;;;;;11.60;9.33;;;;;;;0.19;55.78;96763.22;5135643;28;20208;-53
2022/03/07 03:31:17;;;;;;;9.80;8.80;;;;;;;0.10;56.38;96768.88;5133422;28;20201;-54
2022/03/07 03:33:44;;;;;;;10.90;9.47;;;;;;;0.13;56.16;96761.78;5118019;28;20649;-58
2022/03/07 03:36:10;;;;;;;10.90;9.53;;;;;;;0.22;55.98;96763.06;5118083;28;20223;-56
2022/03/07 03:38:37;;;;;;;11.03;9.90;;;;;;;0.04;56.80;96758.81;5117791;28;20217;-56
2022/03/07 03:41:05;;;;;;;10.70;9.47;;;;;;;0.08;57.69;96766.34;5114990;28;20210;-56
2022/03/07 03:43:31;;;;;;;11.17;10.07;;;;;;;0.09;56.53;96765.44;5114112;28;20221;-56
2022/03/07 03:45:59;;;;;;;11.83;9.97;;;;;;;0.03;57.16;96760.56;5113953;28;20660;-56
2022/03/07 03:48:27;;;;;;;11.13;9.90;;;;;;;0.03;57.13;96767.50;5114639;28;20228;-57
2022/03/07 03:50:54;;;;;;;10.27;9.27;;;;;;;-0.02;57.21;96765.97;5121933;28;20208;-56
2022/03/07 03:53:20;;;;;;;10.37;9.27;;;;;;;-0.01;57.58;96774.63;5121508;28;20198;-56
2022/03/07 03:55:47;;;;;;;10.70;9.60;;;;;;;-0.01;58.05;96777.22;5117201;28;20282;-58
2022/03/07 03:58:13;;;;;;;11.27;10.07;;;;;;;0.02;57.79;96769.25;5118376;28;20517;-57
2022/03/07 04:00:40;;;;;;;10.67;9.57;;;;;;;-0.06;57.65;96774.84;5114818;28;20228;-57
2022/03/07 04:03:09;;;;;;;11.30;10.10;;;;;;;-0.10;57.38;96778.50;5117137;28;20532;-57
2022/03/07 04:05:37;;;;;;;10.37;9.37;;;;;;;-0.13;58.86;96783.84;5121223;28;20197;-57
2022/03/07 04:08:04;;;;;;;11.50;9.80;;;;;;;-0.15;58.53;96774.47;5122888;28;20220;-59
2022/03/07 04:10:30;;;;;;;12.00;10.07;;;;;;;-0.17;57.94;96779.72;5114016;28;20754;-57
2022/03/07 04:12:59;;;;;;;11.47;9.83;;;;;;;-0.19;58.74;96780.72;5114042;28;20215;-57
2022/03/07 04:15:28;;;;;;;11.27;10.03;;;;;;;-0.25;58.28;96783.63;5113450;28;20207;-53
2022/03/07 04:17:55;;;;;;;11.60;10.40;;;;;;;-0.25;58.41;96784.44;5111736;28;20574;-55
2022/03/07 04:20:21;;;;;;;11.97;10.13;;;;;;;-0.20;57.68;96792.88;5112437;28;20213;-55
2022/03/07 04:22:49;;;;;;;11.40;10.20;;;;;;;-0.31;58.36;96783.88;5111995;28;20220;-55
2022/03/07 04:25:16;;;;;;;11.47;10.27;;;;;;;-0.31;58.46;96794.28;5113610;28;20213;-56
2022/03/07 04:27:43;;;;;;;10.87;9.77;;;;;;;-0.31;58.71;96789.09;5111802;28;20214;-55
2022/03/07 04:30:10;;;;;;;11.30;9.57;;;;;;;-0.37;58.86;96786.78;5111852;28;20204;-54
2022/03/07 04:32:38;;;;;;;11.93;10.63;;;;;;;-0.42;58.64;96787.00;5113322;28;20208;-56
2022/03/07 04:35:06;;;;;;;11.43;10.23;;;;;;;-0.40;58.37;96785.19;5113285;28;20544;-55
2022/03/07 04:37:33;;;;;;;10.97;9.87;;;;;;;-0.42;58.94;96787.00;5112730;28;20196;-55
2022/03/07 04:40:08;;;;;;;13.60;10.60;;;;;;;-0.39;58.81;96786.84;5112618;28;20212;-55
2022/03/07 04:42:34;;;;;;;11.80;10.40;;;;;;;-0.36;59.15;96791.94;5112668;28;20514;-55
2022/03/07 04:45:01;;;;;;;11.97;10.47;;;;;;;-0.39;58.85;96792.03;5112886;28;20209;-55
2022/03/07 04:47:28;;;;;;;11.53;10.43;;;;;;;-0.45;59.01;96791.50;5112931;28;20201;-55
2022/03/07 04:49:55;;;;;;;10.97;9.87;;;;;;;-0.41;58.85;96801.69;5113108;28;21705;-56
2022/03/07 04:52:22;;;;;;;11.70;10.47;;;;;;;-0.47;59.15;96809.78;5113400;28;20201;-55
2022/03/07 04:54:48;;;;;;;10.67;9.57;;;;;;;-0.53;59.34;96800.50;5112342;28;20315;-57
2022/03/07 04:57:16;;;;;;;11.03;9.93;;;;;;;-0.45;59.08;96805.34;5112529;28;20220;-56
2022/03/07 04:59:45;;;;;;;11.77;10.40;;;;;;;-0.44;59.14;96801.84;5113304;28;20212;-55
2022/03/07 05:02:11;;;;;;;11.87;10.67;;;;;;;-0.51;59.32;96793.50;5112304;28;20278;-55
2022/03/07 05:04:38;;;;;;;12.87;10.27;;;;;;;-0.50;59.92;96795.16;5112699;28;20222;-55
2022/03/07 05:07:04;;;;;;;11.80;10.57;;;;;;;-0.42;59.74;96797.41;5112468;28;20856;-55
2022/03/07 05:09:31;;;;;;;10.70;9.70;;;;;;;-0.39;60.48;96804.22;5112333;28;20230;-55
2022/03/07 05:11:58;;;;;;;11.57;10.47;;;;;;;-0.39;59.84;96805.03;5112101;28;20599;-56
2022/03/07 05:14:25;;;;;;;12.03;10.63;;;;;;;-0.34;59.52;96803.06;5111524;28;20225;-54
2022/03/07 05:16:52;;;;;;;11.97;10.73;;;;;;;-0.37;58.87;96802.38;5112472;28;20208;-55
2022/03/07 05:19:19;;;;;;;12.67;11.30;;;;;;;-0.48;59.69;96802.88;5112638;28;20254;-56
2022/03/07 05:21:46;;;;;;;12.23;11.00;;;;;;;-0.41;60.32;96796.50;5111749;28;20240;-56
2022/03/07 05:24:12;;;;;;;11.20;10.03;;;;;;;-0.45;59.97;96791.50;5112412;28;20250;-55
2022/03/07 05:26:40;;;;;;;11.53;10.33;;;;;;;-0.42;59.81;96794.78;5112051;28;20231;-55
2022/03/07 05:29:07;;;;;;;11.27;10.17;;;;;;;-0.47;59.51;96806.34;5112309;28;20230;-55
2022/03/07 05:31:34;;;;;;;11.70;10.50;;;;;;;-0.55;59.42;96804.94;5112394;28;20197;-54
2022/03/07 05:34:01;;;;;;;12.40;11.20;;;;;;;-0.64;60.39;96801.94;5112101;28;20645;-56
2022/03/07 05:36:28;;;;;;;12.40;11.07;;;;;;;-0.59;60.60;96800.78;5112470;28;20200;-55
2022/03/07 05:38:56;;;;;;;12.43;11.23;;;;;;;-0.51;60.44;96809.09;5112439;28;20228;-56
2022/03/07 05:41:22;;;;;;;11.70;10.40;;;;;;;-0.48;60.09;96808.09;5112335;28;20206;-54
2022/03/07 05:43:49;;;;;;;12.40;11.17;;;;;;;-0.49;60.06;96816.78;5112118;28;20216;-56
2022/03/07 05:46:15;;;;;;;12.03;10.73;;;;;;;-0.47;61.75;96812.38;5112111;28;20223;-55
2022/03/07 05:48:43;;;;;;;12.87;10.67;;;;;;;-0.47;61.67;96814.97;5130879;28;20204;-55
2022/03/07 05:51:09;;;;;;;12.30;11.00;;;;;;;-0.57;59.99;96814.53;5128816;28;20623;-56
2022/03/07 05:53:36;;;;;;;11.87;10.67;;;;;;;-0.58;59.85;96820.66;5128231;28;20191;-57
2022/03/07 05:56:04;;;;;;;12.07;10.87;;;;;;;-0.52;60.42;96819.53;5114354;28;20208;-55
2022/03/07 05:58:31;;;;;;;11.97;10.87;;;;;;;-0.50;60.24;96815.13;5113346;28;20292;-56
2022/03/07 06:00:57;;;;;;;12.50;11.13;;;;;;;-0.51;60.32;96818.63;5112258;28;20207;-56
2022/03/07 06:03:24;;;;;;;12.70;11.40;;;;;;;-0.42;60.93;96812.13;5112176;28;20232;-55
2022/03/07 06:05:52;;;;;;;12.70;11.50;;;;;;;-0.40;61.42;96811.16;5112601;28;20216;-56
2022/03/07 06:08:18;;;;;;;12.97;11.57;;;;;;;-0.44;60.66;96821.78;5130083;28;20204;-56
2022/03/07 06:10:45;;;;;;;14.17;11.67;;;;;;;-0.45;59.67;96818.31;5136154;28;20169;-55
2022/03/07 06:13:12;;;;;;;12.60;11.40;;;;;;;-0.15;60.07;96816.03;5132950;28;20193;-56
2022/03/07 06:15:43;;;;;;;12.23;11.13;;;;;;;-0.17;60.05;96815.25;5112507;28;20529;-56
2022/03/07 06:18:10;;;;;;;12.63;11.33;;;;;;;-0.09;60.14;96824.38;5112493;28;20289;-56
2022/03/07 06:20:37;;;;;;;12.57;11.37;;;;;;;-0.19;60.52;96817.94;5111081;28;20218;-56
2022/03/07 06:23:05;;;;;;;14.73;11.10;;;;;;;-0.27;60.16;96820.06;5112182;28;20211;-56
2022/03/07 06:25:33;;;;;;;12.50;11.20;;;;;;;-0.37;60.10;96826.59;5112774;28;20354;-56
2022/03/07 06:28:00;;;;;;;13.43;12.03;;;;;;;-0.12;59.23;96815.88;5111790;28;20211;-56
2022/03/07 06:30:26;;;;;;;13.90;11.70;;;;;;;0.15;59.08;96818.88;5118116;28;20211;-56
2022/03/07 06:32:53;;;;;;;14.63;11.67;;;;;;;0.20;58.78;96827.31;5119190;28;20204;-55
2022/03/07 06:35:19;;;;;;;12.70;11.40;;;;;;;0.40;57.77;96819.34;5118114;27;20201;-57
2022/03/07 06:37:47;;;;;;;14.00;12.43;;;;;;;0.47;58.19;96818.13;5118310;28;20215;-56
2022/03/07 06:40:15;;;;;;;12.73;11.43;;;;;;;0.53;57.94;96825.63;5118006;28;20224;-57
2022/03/07 06:42:41;;;;;;;12.33;10.87;;;;;;;0.53;57.28;96825.63;5118021;28;20202;-56
2022/03/07 06:45:10;;;;;;;13.27;11.60;;;;;;;0.60;56.97;96826.16;5118710;28;20239;-56
2022/03/07 06:47:37;;;;;;;14.33;11.53;;;;;;;0.91;57.04;96828.88;5119407;27;20204;-56
2022/03/07 06:50:04;;;;;;;14.67;12.00;;;;;;;1.03;56.08;96830.00;5118603;27;20210;-56
2022/03/07 06:52:30;;;;;;;12.70;11.43;;;;;;;1.35;55.43;96839.50;5119251;28;20216;-55
2022/03/07 06:54:57;;;;;;;12.53;11.10;;;;;;;1.15;55.09;96844.94;5118949;28;20534;-56
2022/03/07 06:57:24;;;;;;;11.47;10.27;;;;;;;1.03;56.22;96840.41;5118485;28;20647;-56
2022/03/07 06:59:51;;;;;;;12.93;11.63;;;;;;;0.95;56.98;96844.25;5118668;28;20222;-56
2022/03/07 07:02:19;;;;;;;12.57;11.27;;;;;;;0.76;56.96;96848.72;5118730;28;20532;-56
2022/03/07 07:04:45;;;;;;;12.10;11.00;;;;;;;0.66;57.30;96854.47;5118908;28;20245;-56
2022/03/07 07:07:12;;;;;;;13.93;12.00;;;;;;;0.57;57.60;96844.53;5119981;28;20197;-57
2022/03/07 07:09:39;;;;;;;13.73;11.80;;;;;;;0.60;57.68;96847.81;5118853;28;20210;-56
2022/03/07 07:12:07;;;;;;;14.47;11.23;;;;;;;0.67;58.27;96858.75;5118751;28;20538;-56
2022/03/07 07:14:36;;;;;;;12.83;11.47;;;;;;;0.62;57.76;96851.19;5118556;28;20249;-56
2022/03/07 07:17:03;;;;;;;14.83;11.77;;;;;;;0.60;57.68;96853.03;5118874;28;20266;-56
2022/03/07 07:19:31;;;;;;;12.57;11.33;;;;;;;0.66;58.35;96857.06;5118323;28;20226;-56
2022/03/07 07:21:58;;;;;;;12.63;11.43;;;;;;;0.71;57.62;96861.09;5118958;27;20648;-56
2022/03/07 07:24:24;;;;;;;13.03;11.77;;;;;;;0.63;58.12;96858.06;5118628;28;20236;-56
2022/03/07 07:26:51;;;;;;;13.43;11.87;;;;;;;0.77;57.35;96863.41;5123658;28;20213;-55
2022/03/07 07:29:17;;;;;;;13.27;11.93;;;;;;;0.77;57.75;96863.41;5123273;28;20207;-56
2022/03/07 07:31:47;;;;;;;15.13;12.67;;;;;;;0.88;57.66;96866.31;5124759;28;20207;-55
2022/03/07 07:34:13;;;;;;;12.90;11.60;;;;;;;0.70;58.12;96864.66;5121601;28;20204;-56
2022/03/07 07:36:42;;;;;;;12.87;11.50;;;;;;;0.70;58.29;96864.66;5118178;28;20624;-54
2022/03/07 07:39:08;;;;;;;12.97;11.73;;;;;;;0.90;58.25;96863.63;5117430;28;20597;-56
2022/03/07 07:41:35;;;;;;;13.43;11.90;;;;;;;1.02;57.74;96875.16;5115624;27;20205;-57
2022/03/07 07:44:02;;;;;;;14.40;12.60;;;;;;;1.03;57.14;96866.44;5114894;28;20232;-55
2022/03/07 07:46:28;;;;;;;13.07;11.73;;;;;;;1.13;56.72;96867.66;5115014;28;20221;-56
2022/03/07 07:48:57;;;;;;;13.40;12.00;;;;;;;1.05;56.85;96875.00;5114821;28;20775;-55
2022/03/07 07:51:24;;;;;;;14.13;12.73;;;;;;;1.15;57.69;96877.06;5114791;28;20269;-56
2022/03/07 07:53:51;;;;;;;13.80;12.37;;;;;;;1.12;57.15;96871.16;5115372;28;20208;-56
2022/03/07 07:56:19;;;;;;;13.07;11.80;;;;;;;1.05;57.56;96869.81;5114298;27;20224;-56
2022/03/07 07:58:45;;;;;;;14.43;12.90;;;;;;;1.11;58.90;96874.69;5113994;28;20210;-55
2022/03/07 08:01:12;;;;;;;13.47;12.17;;;;;;;1.12;57.98;96881.59;5114712;28;20241;-54
2022/03/07 08:03:38;;;;;;;13.90;12.47;;;;;;;1.14;57.67;96884.94;5118631;28;20235;-56
2022/03/07 08:06:06;;;;;;;12.80;11.60;;;;;;;1.21;57.40;96886.28;5120906;28;20213;-56
2022/03/07 08:08:33;;;;;;;14.00;12.63;;;;;;;1.19;57.25;96889.00;5118957;28;20212;-57
2022/03/07 08:10:59;;;;;;;17.27;12.73;;;;;;;1.18;58.25;96886.47;5120962;28;20207;-56
2022/03/07 08:13:26;;;;;;;16.57;13.47;;;;;;;1.16;57.99;96888.31;5123922;28;20197;-56
2022/03/07 08:15:52;;;;;;;14.17;12.83;;;;;;;1.24;57.66;96896.59;5125467;28;20524;-56
2022/03/07 08:18:19;;;;;;;13.93;12.53;;;;;;;1.20;57.79;96890.69;5126020;28;20216;-56
2022/03/07 08:20:46;;;;;;;15.00;13.40;;;;;;;1.26;58.05;96879.94;5122564;28;20209;-56
2022/03/07 08:23:14;;;;;;;14.90;12.90;;;;;;;1.21;57.94;96886.28;5118759;28;20209;-55
2022/03/07 08:25:40;;;;;;;16.50;12.80;;;;;;;1.32;57.67;96889.19;5119799;28;20217;-56
2022/03/07 08:28:07;;;;;;;14.50;13.10;;;;;;;1.58;57.64;96891.25;5126043;28;20197;-56
2022/03/07 08:30:35;;;;;;;13.70;12.30;;;;;;;1.42;57.30;96895.59;5120492;28;20201;-56
2022/03/07 08:33:02;;;;;;;15.00;13.40;;;;;;;1.49;57.15;96903.00;5115611;28;20210;-56
2022/03/07 08:35:28;;;;;;;14.70;13.30;;;;;;;1.46;57.50;96895.34;5114161;28;20568;-55
2022/03/07 08:37:55;;;;;;;16.43;13.17;;;;;;;1.51;57.77;96897.72;5113397;28;20219;-55
2022/03/07 08:40:23;;;;;;;14.57;13.00;;;;;;;1.49;57.25;96902.16;5113170;28;20291;-56
2022/03/07 08:42:50;;;;;;;14.17;12.67;;;;;;;1.61;57.37;96890.25;5113496;28;20213;-56
2022/03/07 08:45:17;;;;;;;15.43;13.07;;;;;;;1.51;57.26;96897.72;5113148;28;20225;-57
2022/03/07 08:47:43;;;;;;;15.27;13.77;;;;;;;1.79;57.54;96890.09;5112078;28;20208;-56
2022/03/07 08:50:11;;;;;;;14.87;13.40;;;;;;;1.56;56.78;96893.09;5115915;28;20204;-56
2022/03/07 08:52:39;;;;;;;14.80;13.30;;;;;;;1.64;57.45;96893.53;5116971;28;20269;-56
2022/03/07 08:55:07;;;;;;;15.67;13.20;;;;;;;1.82;56.59;96896.91;5117189;28;20222;-55
2022/03/07 08:57:35;;;;;;;15.37;13.83;;;;;;;1.75;57.33;96899.00;5113910;28;20226;-57
2022/03/07 09:00:01;;;;;;;18.30;13.53;;;;;;;1.81;56.86;96903.88;5114358;28;20217;-56
2022/03/07 09:02:29;;;;;;;15.10;13.50;;;;;;;1.90;57.25;96912.97;5117491;28;20224;-56
2022/03/07 09:04:56;;;;;;;15.20;13.60;;;;;;;2.11;55.95;96909.19;5120534;28;20232;-56
2022/03/07 09:07:22;;;;;;;16.43;14.63;;;;;;;2.07;56.08;96914.66;5122721;28;20219;-56
2022/03/07 09:09:49;;;;;;;15.77;14.07;;;;;;;2.14;56.35;96914.22;5122228;28;20207;-57
2022/03/07 09:12:16;;;;;;;14.83;13.33;;;;;;;2.20;56.19;96918.25;5120184;28;20580;-55
2022/03/07 09:14:44;;;;;;;17.90;14.97;;;;;;;2.25;55.51;96919.69;5112621;28;20194;-56
2022/03/07 09:17:11;;;;;;;16.40;14.60;;;;;;;2.27;55.86;96927.41;5112819;27;20214;-56
2022/03/07 09:19:37;;;;;;;16.00;14.43;;;;;;;2.39;55.38;96921.53;5112726;28;20644;-55
2022/03/07 09:22:04;;;;;;;15.27;13.67;;;;;;;2.75;53.98;96918.59;5112053;28;20643;-56
2022/03/07 09:24:30;;;;;;;18.80;15.37;;;;;;;2.82;54.69;96912.91;5110771;28;20539;-56
2022/03/07 09:26:57;;;;;;;15.87;14.27;;;;;;;3.13;53.42;96913.72;5111763;28;20203;-55
2022/03/07 09:29:24;;;;;;;15.53;13.93;;;;;;;3.28;53.18;96910.19;5112385;28;20207;-55
2022/03/07 09:31:52;;;;;;;17.10;15.03;;;;;;;3.76;52.20;96915.03;5111930;28;20305;-57
2022/03/07 09:34:19;;;;;;;15.90;14.30;;;;;;;4.44;53.16;96912.47;5112871;28;20515;-58
2022/03/07 09:36:45;;;;;;;16.03;14.33;;;;;;;4.87;52.57;96923.59;5112237;28;20211;-57
2022/03/07 09:39:13;;;;;;;16.07;14.47;;;;;;;5.20;50.22;96923.13;5112361;28;20232;-58
2022/03/07 09:41:42;;;;;;;16.53;14.90;;;;;;;5.32;49.74;96923.13;5112047;28;20208;-56
2022/03/07 09:44:10;;;;;;;16.53;14.83;;;;;;;5.42;48.68;96923.38;5112449;27;20368;-57
2022/03/07 09:46:37;;;;;;;16.07;14.47;;;;;;;5.66;47.72;96920.84;5112512;28;20273;-57
2022/03/07 09:49:05;;;;;;;16.77;15.17;;;;;;;5.82;47.69;96916.19;5112368;28;20205;-57
2022/03/07 09:51:31;;;;;;;15.83;14.33;;;;;;;5.83;48.68;96923.97;5112181;28;20212;-58
2022/03/07 09:53:58;;;;;;;15.97;14.47;;;;;;;6.06;47.89;96918.91;5111029;28;20618;-56
2022/03/07 09:56:25;;;;;;;15.33;13.83;;;;;;;6.00;46.71;96918.38;5111419;28;21422;-57
2022/03/07 09:58:51;;;;;;;15.77;14.27;;;;;;;6.06;45.88;96918.91;5111694;28;20574;-56
2022/03/07 10:01:19;;;;;;;16.13;14.63;;;;;;;6.34;45.07;96929.13;5111028;28;20221;-57
2022/03/07 10:03:46;;;;;;;16.70;14.47;;;;;;;5.96;48.88;96930.06;5109858;28;20205;-57
2022/03/07 10:06:15;;;;;;;17.03;15.33;;;;;;;6.33;47.87;96928.28;5111098;28;20232;-56
2022/03/07 10:08:52;;;;;;;16.97;15.27;;;;;;;6.54;47.60;96933.78;5111065;28;20200;-56
2022/03/07 10:11:20;;;;;;;16.73;15.07;;;;;;;6.69;45.56;96931.81;5110930;28;20189;-56
2022/03/07 10:13:51;;;;;;;17.40;15.60;;;;;;;6.61;46.21;96932.38;5111615;28;20209;-55
2022/03/07 10:16:20;;;;;;;18.17;15.20;;;;;;;6.67;46.78;96939.81;5111090;28;20185;-57
2022/03/07 10:18:52;;;;;;;17.67;15.90;;;;;;;6.70;45.58;96931.69;5110385;28;20193;-56
2022/03/07 10:21:26;;;;;;;16.37;14.83;;;;;;;6.87;44.91;96936.53;5111482;28;20200;-54
2022/03/07 10:23:53;;;;;;;17.37;15.50;;;;;;;6.17;45.54;96945.22;5110964;28;20197;-55
2022/03/07 10:26:20;;;;;;;16.23;14.63;;;;;;;6.35;45.52;96936.88;5110701;28;20319;-57
2022/03/07 10:28:53;;;;;;;19.53;15.87;;;;;;;6.59;44.98;96939.53;5111160;28;20208;-55
2022/03/07 10:31:20;;;;;;;16.87;15.17;;;;;;;6.93;44.00;96933.50;5111001;28;20212;-56
2022/03/07 10:33:47;;;;;;;16.97;15.13;;;;;;;6.79;44.09;96915.28;5110418;28;20208;-55
2022/03/07 10:36:13;;;;;;;18.30;16.40;;;;;;;6.94;43.70;96915.94;5111857;28;20205;-56
2022/03/07 10:38:43;;;;;;;17.27;15.50;;;;;;;6.99;43.82;96922.50;5135162;28;20196;-54
2022/03/07 10:41:09;;;;;;;17.50;15.70;;;;;;;6.89;43.79;96925.94;5134868;28;20173;-55
2022/03/07 10:43:46;;;;;;;18.80;15.80;;;;;;;7.37;43.15;96927.50;5133040;28;20196;-55
2022/03/07 10:46:13;;;;;;;17.20;15.50;;;;;;;7.65;42.77;96915.69;5111970;28;20652;-55
2022/03/07 10:48:44;;;;;;;16.90;15.30;;;;;;;7.65;42.51;96918.34;5111667;28;20637;-56
2022/03/07 10:51:16;;;;;;;17.40;15.80;;;;;;;8.07;42.87;96910.69;5111627;28;20233;-55
2022/03/07 10:53:45;;;;;;;17.47;15.67;;;;;;;8.28;41.54;96903.72;5111313;28;20327;-55
2022/03/07 10:56:12;;;;;;;16.93;15.33;;;;;;;8.70;42.03;96913.47;5112152;28;20193;-56
2022/03/07 10:58:46;;;;;;;16.80;15.20;;;;;;;8.47;41.34;96920.59;5111940;28;20200;-56
2022/03/07 11:01:12;;;;;;;16.60;15.10;;;;;;;8.34;42.31;96919.06;5111123;28;20225;-56
2022/03/07 11:03:39;;;;;;;17.07;15.47;;;;;;;8.76;40.35;96923.50;5111546;28;20201;-55
2022/03/07 11:06:05;;;;;;;16.97;15.47;;;;;;;9.23;39.49;96914.31;5111791;28;20225;-55
2022/03/07 11:08:33;;;;;;;17.53;15.87;;;;;;;9.54;39.61;96917.84;5121055;28;20192;-54
2022/03/07 11:11:01;;;;;;;17.57;16.07;;;;;;;9.25;39.03;96911.53;5134019;28;20178;-53
2022/03/07 11:13:30;;;;;;;17.37;15.77;;;;;;;9.13;38.86;96902.03;5135386;28;20181;-53
2022/03/07 11:15:58;;;;;;;16.67;15.10;;;;;;;9.49;38.92;96909.50;5116543;28;20648;-53
2022/03/07 11:18:25;;;;;;;17.60;15.93;;;;;;;9.86;37.85;96909.81;5121302;28;20216;-53
2022/03/07 11:20:53;;;;;;;16.93;15.23;;;;;;;10.09;37.47;96906.03;5125508;28;20205;-53
2022/03/07 11:23:21;;;;;;;18.47;16.60;;;;;;;10.41;37.16;96900.59;5126306;28;20540;-53